Markes, Pennsylvania
Current Conditions -  °F | °C
As of 11:53 AM on Tuesday 27 Jan 2015 (Local Time) from KHGR Reporting Station
Overcast Overcast  
Wind Chill: 21°   Ceiling: 5000
Heat Index: 30°   Visibility: 10mi
Dew Point: 21°   Wind: 10mph
Humidity: 69%   Direction: 320°NW
Pressure: 29.82"   Gusts: NA
Location:  39.8035°N, 77.9346°W
Report Text: KHGR 271653Z 32009KT 10SM FEW023 SCT039 OVC050 M01/M06 A2982 RMK AO2 SLP115 T10111061
Loading
Personal Weather Stations






























Interactive Weather Map New forecast layout! Learn more

10-Day Weather Forecast

Advertisements
Track Severe Weather on mobile